createdAt,value
2018-12-18T00:00:23.843Z,18.23
2018-12-18T00:02:56.293Z,19.67
2018-12-18T00:05:33.606Z,18.67
2018-12-18T00:08:06.057Z,17.20
2018-12-18T00:10:41.639Z,22.50
2018-12-18T00:13:11.997Z,20.50
2018-12-18T00:15:42.331Z,22.30
2018-12-18T00:18:12.781Z,16.53
2018-12-18T00:20:43.172Z,22.37
2018-12-18T00:23:13.529Z,14.50
2018-12-18T00:25:43.866Z,20.20
2018-12-18T00:28:14.377Z,22.50
2018-12-18T00:30:44.910Z,20.43
2018-12-18T00:33:15.151Z,20.00
2018-12-18T00:35:46.273Z,20.17
2018-12-18T00:38:16.813Z,20.20
2018-12-18T00:40:48.100Z,20.00
2018-12-18T00:43:18.608Z,21.80
2018-12-18T00:45:49.092Z,24.03
2018-12-18T00:48:20.087Z,18.27
2018-12-18T00:50:50.637Z,27.97
2018-12-18T00:53:21.197Z,22.17
2018-12-18T00:55:52.100Z,17.43
2018-12-18T00:58:22.677Z,22.53
2018-12-18T01:00:53.062Z,26.47
2018-12-18T01:03:23.564Z,19.23
2018-12-18T01:05:53.905Z,18.77
2018-12-18T01:08:24.347Z,19.97
2018-12-18T01:10:54.763Z,24.13
2018-12-18T01:13:25.092Z,23.60
2018-12-18T01:15:55.400Z,21.43
2018-12-18T01:18:25.742Z,21.00
2018-12-18T01:20:57.083Z,17.67
2018-12-18T01:23:27.632Z,19.57
2018-12-18T01:25:58.042Z,24.50
2018-12-18T01:28:28.567Z,20.37
2018-12-18T01:30:58.905Z,18.20
2018-12-18T01:33:29.134Z,23.03
2018-12-18T01:35:59.524Z,16.20
2018-12-18T01:38:29.971Z,17.20
2018-12-18T01:41:00.426Z,21.33
2018-12-18T01:43:30.652Z,22.37
2018-12-18T01:46:01.140Z,17.40
2018-12-18T01:48:31.580Z,18.27
2018-12-18T01:51:02.018Z,19.23
2018-12-18T01:53:32.293Z,19.47
2018-12-18T01:56:02.583Z,13.07
2018-12-18T01:58:33.006Z,17.53
2018-12-18T02:01:03.337Z,15.73
2018-12-18T02:03:33.815Z,18.03
2018-12-18T02:06:04.370Z,18.23
2018-12-18T02:08:39.530Z,15.97
2018-12-18T02:11:10.097Z,26.33
2018-12-18T02:13:40.376Z,12.30
2018-12-18T02:16:10.750Z,16.60
2018-12-18T02:18:41.141Z,16.43
2018-12-18T02:21:11.274Z,17.53
2018-12-18T02:23:41.613Z,17.27
2018-12-18T02:26:11.991Z,16.73
2018-12-18T02:28:42.360Z,12.97
2018-12-18T02:31:13.753Z,16.13
2018-12-18T02:33:44.339Z,15.40
2018-12-18T02:36:14.470Z,19.20
2018-12-18T02:38:45.416Z,14.53
2018-12-18T02:41:15.731Z,18.23
2018-12-18T02:43:46.190Z,14.97
2018-12-18T02:46:16.686Z,15.73
2018-12-18T02:48:47.016Z,17.00
2018-12-18T02:51:18.618Z,13.20
2018-12-18T02:53:49.197Z,15.20
2018-12-18T02:56:19.731Z,13.37
2018-12-18T02:58:51.160Z,15.73
2018-12-18T03:01:21.644Z,15.20
2018-12-18T03:03:52.102Z,16.67
2018-12-18T03:06:22.715Z,15.67
2018-12-18T03:08:53.461Z,17.90
2018-12-18T03:11:24.162Z,17.13
2018-12-18T03:13:54.436Z,12.03
2018-12-18T03:16:24.719Z,12.87
2018-12-18T03:18:54.925Z,11.93
2018-12-18T03:21:25.488Z,8.93
2018-12-18T03:23:55.967Z,12.40
2018-12-18T03:26:26.520Z,12.20
2018-12-18T03:28:57.405Z,14.90
2018-12-18T03:31:29.791Z,11.63
2018-12-18T03:34:00.157Z,8.77
2018-12-18T03:36:30.606Z,11.77
2018-12-18T03:39:01.125Z,12.33
2018-12-18T03:41:31.557Z,14.13
2018-12-18T03:44:02.565Z,11.87
2018-12-18T03:46:32.923Z,13.00
2018-12-18T03:49:03.313Z,13.87
2018-12-18T03:51:33.581Z,10.90
2018-12-18T03:54:03.997Z,12.43
2018-12-18T03:56:34.301Z,12.90
2018-12-18T03:59:04.755Z,11.00
2018-12-18T04:01:35.091Z,11.17
2018-12-18T04:04:05.627Z,15.73
2018-12-18T04:06:36.054Z,12.30
2018-12-18T04:09:08.386Z,12.50
2018-12-18T04:11:42.877Z,12.47
2018-12-18T04:14:13.365Z,10.30
2018-12-18T04:16:43.766Z,14.87
2018-12-18T04:19:14.151Z,13.27
2018-12-18T04:21:44.473Z,12.57
2018-12-18T04:24:15.298Z,8.90
2018-12-18T04:26:45.714Z,11.47
2018-12-18T04:29:16.135Z,8.33
2018-12-18T04:31:47.539Z,11.57
2018-12-18T04:34:17.834Z,10.60
2018-12-18T04:36:48.282Z,11.97
2018-12-18T04:39:18.835Z,13.17
2018-12-18T04:41:49.233Z,14.00
2018-12-18T04:44:19.568Z,12.43
2018-12-18T04:46:49.774Z,12.67
2018-12-18T04:49:20.310Z,12.10
2018-12-18T04:51:50.559Z,13.63
2018-12-18T04:54:21.034Z,8.60
2018-12-18T04:56:51.698Z,9.17
2018-12-18T04:59:21.924Z,13.60
2018-12-18T05:01:52.245Z,9.20
2018-12-18T05:04:22.458Z,8.53
2018-12-18T05:06:53.268Z,9.80
2018-12-18T05:09:25.165Z,11.33
2018-12-18T05:11:55.688Z,9.23
2018-12-18T05:14:26.056Z,11.20
2018-12-18T05:16:56.749Z,8.33
2018-12-18T05:19:27.027Z,8.03
2018-12-18T05:21:58.173Z,7.33
2018-12-18T05:24:28.587Z,10.03
2018-12-18T05:26:59.115Z,6.97
2018-12-18T05:29:29.545Z,11.23
2018-12-18T05:32:00.470Z,7.23
2018-12-18T05:34:30.796Z,8.67
2018-12-18T05:37:01.118Z,8.67
2018-12-18T05:39:31.639Z,5.97
2018-12-18T05:42:02.092Z,9.13
2018-12-18T05:44:32.476Z,5.60
2018-12-18T05:47:02.854Z,12.10
2018-12-18T05:49:32.983Z,12.40
2018-12-18T05:52:03.311Z,10.50
2018-12-18T05:54:33.741Z,7.90
2018-12-18T05:57:03.871Z,10.43
2018-12-18T05:59:34.187Z,7.53
2018-12-18T06:02:04.718Z,7.10
2018-12-18T06:04:35.216Z,5.17
2018-12-18T06:07:05.566Z,7.60
2018-12-18T06:09:36.811Z,6.87
2018-12-18T06:12:07.147Z,5.70
2018-12-18T06:14:37.405Z,12.50
2018-12-18T06:17:07.913Z,11.80
2018-12-18T06:19:38.226Z,7.27
2018-12-18T06:22:08.555Z,8.00
2018-12-18T06:24:38.924Z,11.67
2018-12-18T06:27:09.419Z,7.73
2018-12-18T06:29:39.818Z,6.67
2018-12-18T06:32:10.713Z,7.13
2018-12-18T06:34:41.025Z,7.90
2018-12-18T06:37:11.451Z,6.83
2018-12-18T06:39:41.866Z,5.93
2018-12-18T06:42:12.186Z,7.07
2018-12-18T06:44:42.642Z,6.80
2018-12-18T06:47:13.028Z,8.63
2018-12-18T06:49:43.377Z,8.60
2018-12-18T06:52:13.795Z,7.27
2018-12-18T06:54:44.029Z,7.63
2018-12-18T06:57:14.482Z,7.33
2018-12-18T06:59:44.870Z,7.27
2018-12-18T07:02:15.451Z,5.67
2018-12-18T07:04:45.789Z,7.73
2018-12-18T07:07:16.255Z,5.13
2018-12-18T07:09:47.406Z,7.50
2018-12-18T07:12:17.982Z,7.87
2018-12-18T07:14:48.487Z,6.37
2018-12-18T07:17:19.126Z,7.50
2018-12-18T07:19:49.551Z,9.47
2018-12-18T07:22:19.977Z,6.43
2018-12-18T07:24:50.416Z,6.67
2018-12-18T07:27:20.738Z,8.70
2018-12-18T07:29:51.159Z,5.70
2018-12-18T07:32:22.822Z,6.37
2018-12-18T07:34:53.264Z,8.60
2018-12-18T07:37:23.763Z,5.57
2018-12-18T07:39:54.319Z,7.23
2018-12-18T07:42:24.651Z,7.10
2018-12-18T07:44:54.947Z,11.63
2018-12-18T07:47:25.424Z,8.30
2018-12-18T07:49:55.730Z,13.13
2018-12-18T07:52:25.978Z,7.70
2018-12-18T07:54:56.186Z,8.60
2018-12-18T07:57:26.617Z,8.43
2018-12-18T07:59:56.834Z,9.13
2018-12-18T08:02:27.129Z,9.17
2018-12-18T08:04:57.575Z,6.77
2018-12-18T08:07:28.021Z,8.03
2018-12-18T08:09:59.253Z,6.97
2018-12-18T08:12:29.684Z,8.00
2018-12-18T08:15:00.234Z,6.60
2018-12-18T08:17:30.597Z,5.13
2018-12-18T08:20:01.182Z,7.20
2018-12-18T08:22:31.551Z,7.17
2018-12-18T08:25:01.941Z,7.07
2018-12-18T08:27:32.422Z,8.57
2018-12-18T08:30:02.910Z,10.57
2018-12-18T08:32:33.845Z,8.53
2018-12-18T08:35:05.168Z,6.87
2018-12-18T08:37:35.639Z,6.57
2018-12-18T08:40:06.482Z,8.00
2018-12-18T08:42:36.716Z,7.90
2018-12-18T08:45:08.494Z,10.80
2018-12-18T08:47:39.947Z,7.97
2018-12-18T08:50:10.762Z,8.80
2018-12-18T08:52:41.074Z,6.60
2018-12-18T08:55:12.624Z,9.30
2018-12-18T08:57:42.965Z,7.73
2018-12-18T09:00:13.464Z,7.23
2018-12-18T09:02:43.899Z,15.37
2018-12-18T09:05:14.377Z,8.60
2018-12-18T09:07:44.588Z,9.13
2018-12-18T09:10:15.074Z,10.40
2018-12-18T09:12:45.610Z,9.07
2018-12-18T09:16:19.073Z,7.10
2018-12-18T09:18:49.459Z,12.27
2018-12-18T09:21:19.841Z,8.57
2018-12-18T09:23:50.183Z,9.10
2018-12-18T09:26:20.407Z,8.07
2018-12-18T09:28:50.912Z,8.50
2018-12-18T09:31:21.380Z,6.17
2018-12-18T09:33:52.737Z,10.27
2018-12-18T09:36:23.069Z,9.37
2018-12-18T09:38:58.506Z,4.50
2018-12-18T09:41:32.846Z,5.67
2018-12-18T09:44:08.190Z,6.70
2018-12-18T09:46:38.602Z,5.30
2018-12-18T09:49:08.841Z,11.07
2018-12-18T09:51:39.261Z,7.70
2018-12-18T09:54:09.662Z,4.77
2018-12-18T09:56:45.275Z,6.33
2018-12-18T09:59:15.739Z,8.17
2018-12-18T10:01:45.982Z,6.33
2018-12-18T10:04:16.285Z,7.17
2018-12-18T10:06:46.644Z,4.80
2018-12-18T10:09:17.176Z,5.53
2018-12-18T10:11:47.898Z,3.73
2018-12-18T10:14:18.343Z,2.47
2018-12-18T10:16:49.673Z,6.20
2018-12-18T10:19:20.005Z,4.40
2018-12-18T10:21:50.325Z,6.60
2018-12-18T10:24:20.533Z,5.83
2018-12-18T10:26:50.972Z,4.53
2018-12-18T10:29:21.428Z,3.60
2018-12-18T10:31:51.644Z,4.93
2018-12-18T10:34:22.670Z,5.80
2018-12-18T10:36:53.193Z,7.27
2018-12-18T10:39:23.625Z,6.13
2018-12-18T10:41:54.169Z,5.20
2018-12-18T10:44:24.503Z,3.77
2018-12-18T10:46:54.889Z,5.57
2018-12-18T10:49:25.224Z,6.27
2018-12-18T10:51:55.794Z,3.37
2018-12-18T10:54:26.033Z,6.53
2018-12-18T10:56:56.239Z,4.07
2018-12-18T10:59:26.566Z,7.03
2018-12-18T11:01:57.922Z,3.10
2018-12-18T11:04:28.169Z,3.37
2018-12-18T11:06:58.417Z,6.30
2018-12-18T11:09:29.173Z,6.27
2018-12-18T11:11:59.698Z,4.40
2018-12-18T11:14:30.158Z,4.78
2018-12-18T11:17:00.400Z,6.63
2018-12-18T11:19:31.021Z,4.07
2018-12-18T11:22:01.269Z,3.47
2018-12-18T11:24:31.555Z,3.30
2018-12-18T11:27:01.908Z,5.77
2018-12-18T11:29:32.366Z,7.35
2018-12-18T11:32:02.763Z,6.83
2018-12-18T11:34:34.196Z,8.08
2018-12-18T11:37:04.755Z,6.75
2018-12-18T11:39:34.878Z,4.83
2018-12-18T11:42:05.284Z,5.30
2018-12-18T11:44:35.742Z,5.33
2018-12-18T11:47:06.082Z,5.40
2018-12-18T11:49:36.533Z,5.65
2018-12-18T11:52:06.842Z,4.77
2018-12-18T11:54:37.220Z,4.83
2018-12-18T11:57:07.756Z,7.20
2018-12-18T11:59:38.282Z,5.43
2018-12-18T12:02:08.916Z,3.30
2018-12-18T12:04:39.347Z,4.57
2018-12-18T12:07:09.637Z,5.25
2018-12-18T12:09:39.951Z,4.78
2018-12-18T12:12:11.259Z,4.05
2018-12-18T12:14:42.077Z,5.30
2018-12-18T12:17:12.806Z,6.00
2018-12-18T12:19:43.188Z,3.27
2018-12-18T12:22:13.609Z,6.00
2018-12-18T12:24:43.924Z,3.70
2018-12-18T12:27:19.324Z,4.07
2018-12-18T12:29:49.904Z,3.95
2018-12-18T12:32:20.542Z,3.40
2018-12-18T12:34:51.643Z,5.70
2018-12-18T12:37:21.921Z,2.77
2018-12-18T12:39:52.234Z,3.25
2018-12-18T12:42:22.531Z,4.50
2018-12-18T12:44:52.843Z,3.67
2018-12-18T12:47:23.240Z,4.13
2018-12-18T12:49:53.758Z,4.58
2018-12-18T12:52:24.072Z,4.47
2018-12-18T12:54:54.264Z,6.25
2018-12-18T12:57:24.742Z,8.75
2018-12-18T12:59:55.336Z,5.10
2018-12-18T13:02:25.690Z,4.05
2018-12-18T13:04:56.129Z,4.10
2018-12-18T13:07:26.475Z,4.10
2018-12-18T13:09:57.586Z,4.15
2018-12-18T13:12:30.334Z,6.00
2018-12-18T13:15:00.815Z,6.37
2018-12-18T13:17:31.036Z,5.97
2018-12-18T13:20:01.524Z,5.97
2018-12-18T13:22:31.922Z,5.37
2018-12-18T13:25:02.363Z,4.97
2018-12-18T13:27:33.039Z,5.03
2018-12-18T13:30:03.514Z,5.83
2018-12-18T13:32:33.973Z,3.45
2018-12-18T13:35:05.090Z,7.08
2018-12-18T13:37:36.420Z,3.80
2018-12-18T13:40:06.938Z,9.60
2018-12-18T13:42:37.077Z,5.63
2018-12-18T13:45:07.411Z,7.72
2018-12-18T13:47:37.909Z,5.08
2018-12-18T13:50:08.356Z,6.03
2018-12-18T13:52:38.480Z,6.28
2018-12-18T13:55:08.903Z,6.55
2018-12-18T13:57:39.144Z,4.60
2018-12-18T14:00:09.512Z,5.05
2018-12-18T14:02:40.014Z,5.67
2018-12-18T14:05:10.419Z,5.55
2018-12-18T14:07:40.669Z,4.37
2018-12-18T14:10:10.990Z,4.90
2018-12-18T14:12:41.836Z,5.80
2018-12-18T14:15:12.485Z,6.85
2018-12-18T14:17:42.773Z,5.40
2018-12-18T14:20:13.225Z,5.08
2018-12-18T14:22:43.736Z,5.07
2018-12-18T14:25:14.176Z,5.40
2018-12-18T14:27:44.437Z,5.53
2018-12-18T14:30:14.830Z,6.75
2018-12-18T14:32:45.189Z,5.87
2018-12-18T14:35:16.522Z,3.95
2018-12-18T14:37:47.015Z,6.53
2018-12-18T14:40:17.466Z,8.40
2018-12-18T14:42:47.814Z,4.70
2018-12-18T14:45:18.118Z,6.63
2018-12-18T14:47:48.856Z,6.83
2018-12-18T14:50:19.470Z,5.92
2018-12-18T14:52:49.733Z,4.80
2018-12-18T14:55:20.173Z,5.37
2018-12-18T14:57:50.576Z,2.60
2018-12-18T15:00:21.174Z,7.00
2018-12-18T15:02:51.560Z,4.87
2018-12-18T15:05:22.061Z,5.80
2018-12-18T15:07:52.592Z,4.42
2018-12-18T15:10:23.134Z,5.80
2018-12-18T15:12:54.480Z,5.13
2018-12-18T15:15:24.947Z,5.72
2018-12-18T15:17:55.368Z,5.17
2018-12-18T15:20:25.663Z,3.95
2018-12-18T15:22:55.883Z,4.95
2018-12-18T15:25:26.338Z,5.70
2018-12-18T15:27:56.890Z,4.63
2018-12-18T15:30:27.329Z,4.53
2018-12-18T15:32:58.911Z,4.47
2018-12-18T15:35:30.330Z,4.77
2018-12-18T15:38:01.085Z,4.83
2018-12-18T15:40:31.651Z,5.97
2018-12-18T15:43:01.901Z,5.17
2018-12-18T15:48:11.125Z,5.37
2018-12-18T15:50:41.555Z,5.12
2018-12-18T15:53:12.062Z,5.45
2018-12-18T15:55:42.305Z,6.53
2018-12-18T15:58:12.548Z,5.12
2018-12-18T16:00:42.929Z,5.35
2018-12-18T16:03:13.393Z,4.63
2018-12-18T16:05:43.837Z,5.90
2018-12-18T16:08:14.258Z,7.77
2018-12-18T16:10:44.602Z,9.13
2018-12-18T16:13:15.772Z,4.65
2018-12-18T16:15:46.166Z,5.10
2018-12-18T16:18:16.486Z,4.58
2018-12-18T16:20:46.812Z,6.90
2018-12-18T16:23:17.328Z,6.00
2018-12-18T16:25:47.770Z,4.85
2018-12-18T16:28:18.109Z,7.23
2018-12-18T16:30:48.545Z,6.75
2018-12-18T16:33:18.933Z,6.28
2018-12-18T16:35:49.393Z,5.17
2018-12-18T16:38:20.371Z,7.65
2018-12-18T16:40:50.869Z,7.28
2018-12-18T16:43:21.402Z,4.23
2018-12-18T16:45:51.924Z,3.55
2018-12-18T16:48:22.453Z,6.17
2018-12-18T16:50:52.846Z,4.50
2018-12-18T16:53:23.410Z,6.10
2018-12-18T16:55:53.888Z,4.40
2018-12-18T16:58:24.491Z,5.20
2018-12-18T17:00:55.008Z,5.20
2018-12-18T17:03:25.350Z,3.77
2018-12-18T17:05:55.785Z,5.05
2018-12-18T17:08:26.308Z,7.78
2018-12-18T17:10:56.846Z,4.25
2018-12-18T17:13:28.104Z,4.47
2018-12-18T17:15:58.924Z,3.58
2018-12-18T17:18:29.648Z,3.10
2018-12-18T17:21:00.145Z,5.17
2018-12-18T17:23:30.353Z,4.57
2018-12-18T17:26:00.851Z,5.25
2018-12-18T17:28:31.267Z,4.50
2018-12-18T17:31:01.663Z,5.78
2018-12-18T17:33:32.214Z,3.27
2018-12-18T17:36:03.877Z,6.05
2018-12-18T17:38:34.279Z,5.27
2018-12-18T17:41:04.731Z,6.27
2018-12-18T17:43:35.467Z,7.70
2018-12-18T17:46:06.023Z,5.65
2018-12-18T17:48:36.936Z,6.03
2018-12-18T17:51:07.830Z,6.83
2018-12-18T17:53:38.243Z,5.80
2018-12-18T17:56:08.642Z,6.70
2018-12-18T17:58:39.191Z,5.12
2018-12-18T18:01:09.725Z,7.20
2018-12-18T18:03:40.116Z,6.58
2018-12-18T18:06:10.440Z,7.50
2018-12-18T18:08:40.964Z,5.03
2018-12-18T18:11:11.443Z,6.05
2018-12-18T18:13:42.804Z,6.05
2018-12-18T18:16:13.277Z,5.87
2018-12-18T18:18:43.758Z,5.53
2018-12-18T18:21:14.120Z,5.78
2018-12-18T18:23:44.567Z,6.58
2018-12-18T18:26:15.793Z,6.55
2018-12-18T18:28:48.043Z,5.35
2018-12-18T18:31:18.562Z,6.97
2018-12-18T18:33:49.081Z,8.13
2018-12-18T18:36:20.302Z,5.42
2018-12-18T18:38:50.720Z,7.80
2018-12-18T18:41:21.159Z,5.87
2018-12-18T18:43:51.835Z,5.53
2018-12-18T18:46:22.347Z,6.50
2018-12-18T18:48:52.616Z,7.85
2018-12-18T18:51:23.015Z,7.40
2018-12-18T18:53:53.569Z,7.50
2018-12-18T18:56:24.145Z,8.45
2018-12-18T18:58:55.054Z,7.55
2018-12-18T19:01:25.592Z,8.97
2018-12-18T19:03:57.165Z,7.85
2018-12-18T19:06:28.004Z,7.65
2018-12-18T19:08:58.520Z,7.33
2018-12-18T19:11:29.139Z,7.63
2018-12-18T19:14:00.737Z,6.08
2018-12-18T19:16:32.462Z,7.87
2018-12-18T19:19:02.975Z,7.75
2018-12-18T19:21:33.297Z,6.27
2018-12-18T19:24:03.732Z,7.40
2018-12-18T19:26:34.243Z,7.37
2018-12-18T19:29:04.738Z,7.62
2018-12-18T19:31:35.394Z,6.20
2018-12-18T19:34:05.965Z,6.33
2018-12-18T19:36:36.564Z,6.65
2018-12-18T19:42:21.244Z,8.63
2018-12-18T19:44:52.778Z,10.28
2018-12-18T19:47:41.790Z,7.78
2018-12-18T19:50:12.174Z,8.28
2018-12-18T19:52:42.582Z,6.08
2018-12-18T19:55:13.243Z,7.37
2018-12-18T19:57:43.852Z,7.87
2018-12-18T20:00:14.498Z,7.40
2018-12-18T20:02:45.645Z,8.38
2018-12-18T20:05:16.533Z,6.83
2018-12-18T20:07:47.171Z,6.62
2018-12-18T20:10:17.583Z,7.05
2018-12-18T20:12:48.153Z,7.22
2018-12-18T20:15:19.586Z,8.70
2018-12-18T20:17:50.124Z,7.50
2018-12-18T20:20:20.688Z,6.23
2018-12-18T20:22:51.128Z,7.92
2018-12-18T20:25:21.795Z,9.00
2018-12-18T20:27:52.246Z,8.20
2018-12-18T20:30:22.742Z,7.72
2018-12-18T20:32:53.373Z,7.20
2018-12-18T20:35:23.972Z,7.62
2018-12-18T20:37:54.537Z,8.17
2018-12-18T20:40:25.266Z,6.65
2018-12-18T20:42:55.788Z,8.00
2018-12-18T20:45:26.337Z,7.42
2018-12-18T20:47:56.690Z,8.03
2018-12-18T20:50:27.171Z,7.33
2018-12-18T20:52:57.596Z,7.07
2018-12-18T20:55:27.905Z,8.58
2018-12-18T20:57:58.320Z,7.10
2018-12-18T21:02:34.285Z,6.60
2018-12-18T21:05:05.057Z,7.33
2018-12-18T21:07:35.756Z,7.28
2018-12-18T21:10:07.798Z,7.42
2018-12-18T21:12:38.417Z,8.20
2018-12-18T21:15:09.058Z,9.68
2018-12-18T21:17:41.838Z,7.40
2018-12-18T21:20:12.306Z,6.90
2018-12-18T21:22:43.073Z,6.42
2018-12-18T21:25:18.949Z,6.20
2018-12-18T21:27:46.142Z,6.85
2018-12-18T21:30:16.610Z,7.53
2018-12-18T21:32:47.899Z,5.87
2018-12-18T21:35:18.771Z,5.53
2018-12-18T21:37:49.218Z,4.70
2018-12-18T21:40:19.701Z,6.60
2018-12-18T21:42:50.425Z,7.83
2018-12-18T21:45:20.912Z,6.03
2018-12-18T21:47:51.882Z,6.25
2018-12-18T21:50:22.408Z,7.67
2018-12-18T21:52:52.784Z,7.70
2018-12-18T21:55:23.289Z,5.85
2018-12-18T21:57:53.905Z,5.85
2018-12-18T22:00:24.379Z,5.12
2018-12-18T22:02:54.723Z,6.30
2018-12-18T22:05:25.124Z,4.53
2018-12-18T22:07:55.696Z,5.30
2018-12-18T22:10:26.176Z,6.60
2018-12-18T22:12:56.719Z,4.73
2018-12-18T22:15:26.975Z,5.67
2018-12-18T22:17:58.498Z,5.60
2018-12-18T22:20:29.100Z,6.33
2018-12-18T22:22:59.531Z,5.00
2018-12-18T22:25:29.935Z,4.50
2018-12-18T22:28:00.588Z,4.87
2018-12-18T22:30:31.012Z,4.30
2018-12-18T22:33:01.374Z,4.60
2018-12-18T22:35:31.909Z,4.00
2018-12-18T22:38:02.855Z,4.60
2018-12-18T22:40:33.180Z,4.55
2018-12-18T22:43:03.675Z,4.05
2018-12-18T22:45:34.123Z,4.55
2018-12-18T22:48:04.576Z,5.25
2018-12-18T22:50:35.809Z,3.75
2018-12-18T22:53:06.313Z,4.37
2018-12-18T22:55:36.875Z,4.17
2018-12-18T22:58:07.199Z,3.70
2018-12-18T23:00:42.497Z,4.50
2018-12-18T23:03:12.802Z,4.37
2018-12-18T23:05:43.087Z,3.27
2018-12-18T23:08:13.643Z,6.35
2018-12-18T23:10:44.127Z,4.03
2018-12-18T23:13:18.727Z,3.57
2018-12-18T23:15:50.210Z,3.15
2018-12-18T23:18:20.594Z,2.87
2018-12-18T23:20:51.037Z,3.60
2018-12-18T23:23:21.617Z,3.63
2018-12-18T23:25:52.150Z,4.00
2018-12-18T23:28:22.490Z,3.22
2018-12-18T23:30:52.822Z,3.85
2018-12-18T23:33:23.127Z,3.67
2018-12-18T23:35:53.769Z,3.17
2018-12-18T23:38:25.038Z,3.50
2018-12-18T23:40:55.355Z,4.45
2018-12-18T23:43:25.742Z,4.43
2018-12-18T23:45:56.206Z,3.30
2018-12-18T23:48:27.812Z,3.53
2018-12-18T23:50:58.080Z,2.77
2018-12-18T23:53:28.392Z,4.80
2018-12-18T23:55:58.738Z,3.50
2018-12-18T23:58:28.983Z,3.47
